createdAt,value
2018-03-01T00:00:34.309Z,42.84
2018-03-01T00:03:00.574Z,42.79
2018-03-01T00:05:26.795Z,43.13
2018-03-01T00:07:53.102Z,43.25
2018-03-01T00:10:19.385Z,43.39
2018-03-01T00:12:45.623Z,43.55
2018-03-01T00:15:11.949Z,43.30
2018-03-01T00:17:38.187Z,43.52
2018-03-01T00:20:04.435Z,43.67
2018-03-01T00:22:35.793Z,43.43
2018-03-01T00:25:02.052Z,43.61
2018-03-01T00:27:28.296Z,43.64
2018-03-01T00:29:54.534Z,43.52
2018-03-01T00:32:20.808Z,43.57
2018-03-01T00:34:47.018Z,43.63
2018-03-01T00:37:13.224Z,43.59
2018-03-01T00:39:39.487Z,43.64
2018-03-01T00:42:05.926Z,43.66
2018-03-01T00:44:32.190Z,43.55
2018-03-01T00:46:58.398Z,43.75
2018-03-01T00:49:24.622Z,43.71
2018-03-01T00:51:50.867Z,43.78
2018-03-01T00:54:17.092Z,43.81
2018-03-01T00:56:43.335Z,43.89
2018-03-01T00:59:09.607Z,43.73
2018-03-01T01:01:35.842Z,43.79
2018-03-01T01:04:02.071Z,43.76
2018-03-01T01:06:28.283Z,43.58
2018-03-01T01:08:54.540Z,43.72
2018-03-01T01:11:20.773Z,43.70
2018-03-01T01:13:46.978Z,43.80
2018-03-01T01:16:13.251Z,43.62
2018-03-01T01:18:39.480Z,43.65
2018-03-01T01:21:05.729Z,43.62
2018-03-01T01:23:31.943Z,43.67
2018-03-01T01:25:58.171Z,43.59
2018-03-01T01:28:24.454Z,43.47
2018-03-01T01:30:50.684Z,43.67
2018-03-01T01:33:16.943Z,43.69
2018-03-01T01:35:43.206Z,43.62
2018-03-01T01:38:09.427Z,43.66
2018-03-01T01:40:35.675Z,43.63
2018-03-01T01:43:01.885Z,43.68
2018-03-01T01:45:28.139Z,43.60
2018-03-01T01:47:54.379Z,43.70
2018-03-01T01:50:20.616Z,43.70
2018-03-01T01:52:46.852Z,43.67
2018-03-01T01:55:13.083Z,43.91
2018-03-01T01:57:39.324Z,44.21
2018-03-01T02:00:05.587Z,43.90
2018-03-01T02:02:31.804Z,44.09
2018-03-01T02:04:58.284Z,43.94
2018-03-01T02:07:24.502Z,43.86
2018-03-01T02:09:50.723Z,44.09
2018-03-01T02:12:16.960Z,44.14
2018-03-01T02:14:43.223Z,44.11
2018-03-01T02:17:09.435Z,44.08
2018-03-01T02:19:35.685Z,44.21
2018-03-01T02:22:01.908Z,44.35
2018-03-01T02:24:28.192Z,44.37
2018-03-01T02:26:54.451Z,44.42
2018-03-01T02:29:20.708Z,44.47
2018-03-01T02:31:46.951Z,44.58
2018-03-01T02:34:13.219Z,44.55
2018-03-01T02:36:39.427Z,44.58
2018-03-01T02:39:05.663Z,44.73
2018-03-01T02:41:31.895Z,44.85
2018-03-01T02:43:58.113Z,44.76
2018-03-01T02:46:24.339Z,44.87
2018-03-01T02:48:50.585Z,44.87
2018-03-01T02:51:16.835Z,44.89
2018-03-01T02:53:43.090Z,44.91
2018-03-01T02:56:09.303Z,45.09
2018-03-01T02:58:35.531Z,44.95
2018-03-01T03:01:01.743Z,44.98
2018-03-01T03:03:27.992Z,45.03
2018-03-01T03:05:54.263Z,45.22
2018-03-01T03:08:20.488Z,45.27
2018-03-01T03:10:46.743Z,45.33
2018-03-01T03:13:12.968Z,45.41
2018-03-01T03:15:39.217Z,45.32
2018-03-01T03:18:05.426Z,45.42
2018-03-01T03:20:31.668Z,45.36
2018-03-01T03:22:57.904Z,45.41
2018-03-01T03:25:24.124Z,45.43
2018-03-01T03:27:50.392Z,45.33
2018-03-01T03:30:16.601Z,45.41
2018-03-01T03:32:42.830Z,45.57
2018-03-01T03:35:09.076Z,45.72
2018-03-01T03:37:35.316Z,45.74
2018-03-01T03:40:01.564Z,45.75
2018-03-01T03:42:27.779Z,45.80
2018-03-01T03:44:54.007Z,45.80
2018-03-01T03:47:20.316Z,45.76
2018-03-01T03:49:46.526Z,45.75
2018-03-01T03:52:12.784Z,45.85
2018-03-01T03:54:39.020Z,45.87
2018-03-01T03:57:05.234Z,45.97
2018-03-01T03:59:31.479Z,46.01
2018-03-01T04:01:57.697Z,46.08
2018-03-01T04:04:23.908Z,46.35
2018-03-01T04:06:50.176Z,46.09
2018-03-01T04:09:16.383Z,46.08
2018-03-01T04:11:42.635Z,46.14
2018-03-01T04:14:08.852Z,46.25
2018-03-01T04:16:35.128Z,46.24
2018-03-01T04:19:01.391Z,46.19
2018-03-01T04:21:27.635Z,46.18
2018-03-01T04:23:53.843Z,46.39
2018-03-01T04:26:20.072Z,46.46
2018-03-01T04:28:46.304Z,46.75
2018-03-01T04:31:12.527Z,46.73
2018-03-01T04:33:38.799Z,46.63
2018-03-01T04:36:05.096Z,46.47
2018-03-01T04:38:31.300Z,46.56
2018-03-01T04:40:57.512Z,46.52
2018-03-01T04:43:23.766Z,46.47
2018-03-01T04:45:49.983Z,46.55
2018-03-01T04:48:16.268Z,46.44
2018-03-01T04:50:42.487Z,46.34
2018-03-01T04:53:08.708Z,46.53
2018-03-01T04:55:34.952Z,46.64
2018-03-01T04:58:01.176Z,46.61
2018-03-01T05:00:27.406Z,46.64
2018-03-01T05:02:53.627Z,46.59
2018-03-01T05:05:19.868Z,46.73
2018-03-01T05:07:46.080Z,46.68
2018-03-01T05:10:12.317Z,46.75
2018-03-01T05:12:38.530Z,46.75
2018-03-01T05:15:04.779Z,46.63
2018-03-01T05:17:30.998Z,46.60
2018-03-01T05:19:57.219Z,46.63
2018-03-01T05:22:23.464Z,46.74
2018-03-01T05:24:49.703Z,46.96
2018-03-01T05:27:15.939Z,47.12
2018-03-01T05:29:42.222Z,47.03
2018-03-01T05:32:08.467Z,46.95
2018-03-01T05:34:34.720Z,47.03
2018-03-01T05:37:00.959Z,47.02
2018-03-01T05:39:27.202Z,46.95
2018-03-01T05:41:53.455Z,46.99
2018-03-01T05:44:19.708Z,47.02
2018-03-01T05:46:45.939Z,46.87
2018-03-01T05:49:12.190Z,47.06
2018-03-01T05:51:38.403Z,47.08
2018-03-01T05:54:04.661Z,47.09
2018-03-01T05:56:30.867Z,47.13
2018-03-01T05:58:57.111Z,46.97
2018-03-01T06:01:23.350Z,47.06
2018-03-01T06:03:49.601Z,46.96
2018-03-01T06:06:15.803Z,47.01
2018-03-01T06:08:42.040Z,47.10
2018-03-01T06:11:08.271Z,47.29
2018-03-01T06:13:34.499Z,47.06
2018-03-01T06:16:00.735Z,47.05
2018-03-01T06:18:26.963Z,46.81
2018-03-01T06:20:53.223Z,46.84
2018-03-01T06:23:19.463Z,46.71
2018-03-01T06:25:45.720Z,46.53
2018-03-01T06:28:11.936Z,46.56
2018-03-01T06:30:38.179Z,46.46
2018-03-01T06:33:04.436Z,46.39
2018-03-01T06:35:30.667Z,46.31
2018-03-01T06:37:56.907Z,46.03
2018-03-01T06:40:23.143Z,45.94
2018-03-01T06:42:49.375Z,45.87
2018-03-01T06:45:15.579Z,45.59
2018-03-01T06:47:41.832Z,45.06
2018-03-01T06:50:08.043Z,44.94
2018-03-01T06:52:34.287Z,44.72
2018-03-01T06:55:00.491Z,44.47
2018-03-01T06:57:26.751Z,44.39
2018-03-01T06:59:52.964Z,44.42
2018-03-01T07:02:19.212Z,44.28
2018-03-01T07:04:45.451Z,43.64
2018-03-01T07:07:11.671Z,43.31
2018-03-01T07:09:37.971Z,43.33
2018-03-01T07:12:04.294Z,42.63
2018-03-01T07:14:30.540Z,42.45
2018-03-01T07:16:56.792Z,41.85
2018-03-01T07:19:23.039Z,41.42
2018-03-01T07:21:49.319Z,40.87
2018-03-01T07:24:15.562Z,39.72
2018-03-01T07:26:41.812Z,39.19
2018-03-01T07:29:08.028Z,38.31
2018-03-01T07:31:34.264Z,37.24
2018-03-01T07:34:00.483Z,35.96
2018-03-01T07:36:26.720Z,35.38
2018-03-01T07:38:52.934Z,34.21
2018-03-01T07:41:19.179Z,33.04
2018-03-01T07:43:45.401Z,31.75
2018-03-01T07:46:11.655Z,31.47
2018-03-01T07:48:37.916Z,30.29
2018-03-01T07:51:04.168Z,29.38
2018-03-01T07:53:30.424Z,28.54
2018-03-01T07:55:56.651Z,27.43
2018-03-01T07:58:22.887Z,26.56
2018-03-01T08:00:49.116Z,25.29
2018-03-01T08:03:15.359Z,24.97
2018-03-01T08:05:41.591Z,24.72
2018-03-01T08:08:07.820Z,24.29
2018-03-01T08:10:34.074Z,24.09
2018-03-01T08:13:00.359Z,24.15
2018-03-01T08:15:26.575Z,23.82
2018-03-01T08:17:52.802Z,23.42
2018-03-01T08:20:19.061Z,22.67
2018-03-01T08:22:45.267Z,22.17
2018-03-01T08:25:11.496Z,21.89
2018-03-01T08:27:37.720Z,22.25
2018-03-01T08:30:04.024Z,21.78
2018-03-01T08:32:30.272Z,20.86
2018-03-01T08:34:56.531Z,19.74
2018-03-01T08:37:22.768Z,18.92
2018-03-01T08:39:49.020Z,18.80
2018-03-01T08:42:15.285Z,19.40
2018-03-01T08:44:41.501Z,19.40
2018-03-01T08:47:07.740Z,19.46
2018-03-01T08:49:33.948Z,19.18
2018-03-01T08:52:00.219Z,19.03
2018-03-01T08:54:26.442Z,18.39
2018-03-01T08:56:52.676Z,18.30
2018-03-01T08:59:18.892Z,17.90
2018-03-01T09:01:45.127Z,17.87
2018-03-01T09:04:11.348Z,18.66
2018-03-01T09:06:37.612Z,17.89
2018-03-01T09:09:03.912Z,17.79
2018-03-01T09:11:30.148Z,17.84
2018-03-01T09:13:56.418Z,17.28
2018-03-01T09:16:22.688Z,16.83
2018-03-01T09:18:48.939Z,17.01
2018-03-01T09:21:15.157Z,17.23
2018-03-01T09:23:41.424Z,17.11
2018-03-01T09:26:07.671Z,16.87
2018-03-01T09:28:33.916Z,16.86
2018-03-01T09:31:00.172Z,16.97
2018-03-01T09:33:26.449Z,17.18
2018-03-01T09:35:52.685Z,17.05
2018-03-01T09:38:18.906Z,16.54
2018-03-01T09:40:45.140Z,16.88
2018-03-01T09:43:11.364Z,17.02
2018-03-01T09:45:37.609Z,17.06
2018-03-01T09:48:03.887Z,17.79
2018-03-01T09:50:30.132Z,18.65
2018-03-01T09:52:56.382Z,18.73
2018-03-01T09:55:22.636Z,18.63
2018-03-01T09:57:48.880Z,18.49
2018-03-01T10:00:15.129Z,18.88
2018-03-01T10:02:41.360Z,19.06
2018-03-01T10:05:07.617Z,18.77
2018-03-01T10:07:33.864Z,18.31
2018-03-01T10:10:00.095Z,18.61
2018-03-01T10:12:26.343Z,18.42
2018-03-01T10:14:52.592Z,18.10
2018-03-01T10:17:18.828Z,18.34
2018-03-01T10:19:45.057Z,18.63
2018-03-01T10:22:11.311Z,19.20
2018-03-01T10:24:37.528Z,20.04
2018-03-01T10:27:03.745Z,20.97
2018-03-01T10:29:29.968Z,21.58
2018-03-01T10:31:56.179Z,21.49
2018-03-01T10:34:22.456Z,21.25
2018-03-01T10:36:48.675Z,20.56
2018-03-01T10:39:14.909Z,19.97
2018-03-01T10:41:41.144Z,19.89
2018-03-01T10:44:07.423Z,19.54
2018-03-01T10:46:33.640Z,19.04
2018-03-01T10:48:59.888Z,18.46
2018-03-01T10:51:26.128Z,17.80
2018-03-01T10:53:52.378Z,17.67
2018-03-01T10:56:18.600Z,17.65
2018-03-01T10:58:44.816Z,17.37
2018-03-01T11:01:17.035Z,17.16
2018-03-01T11:03:43.290Z,16.69
2018-03-01T11:06:09.528Z,16.43
2018-03-01T11:08:35.760Z,16.11
2018-03-01T11:11:02.051Z,15.99
2018-03-01T11:13:28.371Z,15.54
2018-03-01T11:15:54.600Z,15.30
2018-03-01T11:18:20.839Z,14.63
2018-03-01T11:20:47.095Z,14.01
2018-03-01T11:23:13.418Z,13.28
2018-03-01T11:25:39.640Z,12.85
2018-03-01T11:28:05.916Z,12.27
2018-03-01T11:30:32.124Z,11.45
2018-03-01T11:32:58.357Z,10.99
2018-03-01T11:35:24.576Z,10.59
2018-03-01T11:37:50.836Z,10.23
2018-03-01T11:40:17.055Z,9.82
2018-03-01T11:42:43.276Z,9.69
2018-03-01T11:45:09.520Z,9.39
2018-03-01T11:47:35.747Z,9.09
2018-03-01T11:50:02.056Z,8.73
2018-03-01T11:52:28.279Z,8.54
2018-03-01T11:54:54.524Z,8.57
2018-03-01T11:57:20.807Z,8.15
2018-03-01T11:59:47.011Z,7.95
2018-03-01T12:02:13.228Z,7.79
2018-03-01T12:04:39.491Z,7.57
2018-03-01T12:07:05.719Z,7.30
2018-03-01T12:09:32.012Z,6.91
2018-03-01T12:11:58.276Z,7.05
2018-03-01T12:14:24.504Z,6.96
2018-03-01T12:16:50.776Z,6.74
2018-03-01T12:19:17.044Z,6.94
2018-03-01T12:21:43.288Z,6.96
2018-03-01T12:24:09.515Z,6.70
2018-03-01T12:26:35.764Z,6.72
2018-03-01T12:29:01.995Z,6.70
2018-03-01T12:31:28.255Z,7.48
2018-03-01T12:33:54.480Z,7.16
2018-03-01T12:36:20.703Z,6.75
2018-03-01T12:38:46.956Z,6.63
2018-03-01T12:41:13.191Z,6.69
2018-03-01T12:43:39.423Z,6.55
2018-03-01T12:46:05.707Z,6.34
2018-03-01T12:48:31.930Z,6.32
2018-03-01T12:50:58.197Z,6.41
2018-03-01T12:53:24.480Z,6.63
2018-03-01T12:55:50.752Z,6.61
2018-03-01T12:58:17.036Z,6.49
2018-03-01T13:00:43.370Z,6.59
2018-03-01T13:03:09.608Z,6.66
2018-03-01T13:05:35.920Z,6.45
2018-03-01T13:08:02.220Z,6.39
2018-03-01T13:10:28.504Z,6.34
2018-03-01T13:12:54.772Z,7.06
2018-03-01T13:15:21.073Z,6.64
2018-03-01T13:17:47.332Z,6.17
2018-03-01T13:20:13.617Z,6.44
2018-03-01T13:22:39.904Z,6.27
2018-03-01T13:25:06.316Z,6.05
2018-03-01T13:27:32.585Z,5.91
2018-03-01T13:29:58.835Z,5.81
2018-03-01T13:32:26.079Z,5.75
2018-03-01T13:48:24.796Z,5.66
2018-03-01T13:50:51.068Z,5.50
2018-03-01T13:53:17.372Z,5.78
2018-03-01T13:55:43.650Z,6.09
2018-03-01T13:58:09.900Z,6.10
2018-03-01T14:00:36.168Z,6.13
2018-03-01T14:03:02.462Z,6.13
2018-03-01T14:05:28.764Z,6.29
2018-03-01T14:07:55.982Z,6.45
2018-03-01T14:10:22.260Z,6.78
2018-03-01T14:26:34.324Z,8.81
2018-03-01T14:31:57.940Z,9.82
2018-03-01T14:34:24.163Z,10.10
2018-03-01T14:36:50.412Z,10.41
2018-03-01T14:39:16.631Z,10.74
2018-03-01T14:41:42.871Z,10.66
2018-03-01T14:44:09.100Z,10.99
2018-03-01T14:46:35.319Z,11.21
2018-03-01T14:49:01.595Z,11.23
2018-03-01T14:51:27.886Z,11.32
2018-03-01T14:53:54.128Z,11.66
2018-03-01T14:56:20.353Z,11.81
2018-03-01T14:58:46.596Z,11.89
2018-03-01T15:01:12.836Z,12.15
2018-03-01T15:03:39.096Z,12.30
2018-03-01T15:06:05.327Z,12.20
2018-03-01T15:08:31.583Z,12.35
2018-03-01T15:10:57.819Z,12.40
2018-03-01T15:13:24.066Z,12.41
2018-03-01T15:15:50.412Z,12.49
2018-03-01T15:18:16.628Z,12.39
2018-03-01T15:20:42.874Z,12.39
2018-03-01T15:23:09.084Z,12.35
2018-03-01T15:25:35.344Z,12.43
2018-03-01T15:28:01.635Z,12.54
2018-03-01T15:30:27.844Z,12.48
2018-03-01T15:32:54.083Z,12.48
2018-03-01T15:35:20.315Z,12.65
2018-03-01T15:37:46.551Z,12.67
2018-03-01T15:40:12.776Z,12.63
2018-03-01T15:42:39.060Z,13.13
2018-03-01T15:45:05.333Z,14.31
2018-03-01T15:47:31.581Z,15.26
2018-03-01T15:49:57.827Z,16.34
2018-03-01T15:52:24.093Z,17.32
2018-03-01T15:54:50.316Z,18.02
2018-03-01T15:57:16.544Z,18.80
2018-03-01T15:59:42.805Z,19.37
2018-03-01T16:02:09.041Z,19.79
2018-03-01T16:04:35.300Z,20.35
2018-03-01T16:07:01.512Z,20.75
2018-03-01T16:09:27.760Z,20.98
2018-03-01T16:11:53.992Z,21.29
2018-03-01T16:14:20.279Z,21.59
2018-03-01T16:16:46.484Z,21.93
2018-03-01T16:19:12.755Z,22.26
2018-03-01T16:21:38.975Z,22.42
2018-03-01T16:24:05.234Z,22.74
2018-03-01T16:26:31.475Z,24.77
2018-03-01T16:28:57.785Z,25.96
2018-03-01T16:31:24.181Z,26.53
2018-03-01T16:33:50.440Z,26.98
2018-03-01T16:36:16.722Z,27.11
2018-03-01T16:38:42.971Z,27.77
2018-03-01T16:41:09.227Z,28.08
2018-03-01T16:43:35.464Z,28.50
2018-03-01T16:46:01.691Z,28.75
2018-03-01T16:48:27.947Z,28.96
2018-03-01T16:50:54.215Z,29.26
2018-03-01T16:53:20.462Z,29.56
2018-03-01T16:55:46.712Z,29.67
2018-03-01T16:58:13.376Z,30.14
2018-03-01T17:00:40.056Z,30.15
2018-03-01T17:03:06.642Z,30.35
2018-03-01T17:05:33.127Z,30.74
2018-03-01T17:07:59.437Z,30.65
2018-03-01T17:10:26.035Z,31.04
2018-03-01T17:12:52.639Z,30.97
2018-03-01T17:15:19.229Z,31.08
2018-03-01T17:17:45.496Z,31.44
2018-03-01T17:20:11.960Z,31.64
2018-03-01T17:22:38.377Z,31.72
2018-03-01T17:25:04.972Z,31.93
2018-03-01T17:27:31.812Z,32.27
2018-03-01T17:29:58.119Z,32.42
2018-03-01T17:32:24.672Z,32.49
2018-03-01T17:34:51.111Z,32.59
2018-03-01T17:37:17.617Z,32.68
2018-03-01T17:39:44.142Z,32.56
2018-03-01T17:42:11.809Z,32.69
2018-03-01T17:44:38.612Z,32.76
2018-03-01T17:47:05.422Z,32.94
2018-03-01T17:49:33.136Z,33.13
2018-03-01T17:51:59.893Z,33.30
2018-03-01T17:54:27.560Z,33.38
2018-03-01T17:56:54.220Z,33.33
2018-03-01T17:59:20.847Z,33.35
2018-03-01T18:01:47.217Z,33.44
2018-03-01T18:04:13.597Z,33.54
2018-03-01T18:06:40.123Z,33.66
2018-03-01T18:09:06.626Z,33.91
2018-03-01T18:11:32.876Z,34.03
2018-03-01T18:13:59.139Z,34.12
2018-03-01T18:16:25.363Z,34.04
2018-03-01T18:18:51.635Z,34.15
2018-03-01T18:21:18.076Z,34.22
2018-03-01T18:23:44.737Z,34.13
2018-03-01T18:26:10.992Z,34.27
2018-03-01T18:28:37.263Z,34.55
2018-03-01T18:31:03.503Z,34.62
2018-03-01T18:33:29.777Z,34.80
2018-03-01T18:35:56.019Z,35.06
2018-03-01T18:38:22.255Z,35.20
2018-03-01T18:40:48.667Z,35.32
2018-03-01T18:43:15.016Z,35.40
2018-03-01T18:45:41.427Z,35.57
2018-03-01T18:48:07.662Z,35.78
2018-03-01T18:50:33.971Z,35.84
2018-03-01T18:53:00.335Z,36.06
2018-03-01T18:55:26.563Z,36.11
2018-03-01T18:57:52.823Z,36.36
2018-03-01T19:00:19.287Z,36.60
2018-03-01T19:02:45.524Z,36.52
2018-03-01T19:05:11.801Z,36.72
2018-03-01T19:07:38.068Z,36.88
2018-03-01T19:10:04.300Z,36.98
2018-03-01T19:12:30.597Z,36.96
2018-03-01T19:14:57.128Z,37.00
2018-03-01T19:17:23.380Z,37.13
2018-03-01T19:19:49.630Z,37.58
2018-03-01T19:22:16.032Z,37.49
2018-03-01T19:24:42.308Z,37.43
2018-03-01T19:27:08.548Z,37.52
2018-03-01T19:29:34.820Z,37.75
2018-03-01T19:32:01.043Z,37.91
2018-03-01T19:34:27.276Z,38.13
2018-03-01T19:36:53.507Z,38.24
2018-03-01T19:39:19.747Z,38.05
2018-03-01T19:41:46.015Z,38.50
2018-03-01T19:44:12.245Z,38.65
2018-03-01T19:46:45.420Z,38.49
2018-03-01T19:49:11.683Z,38.56
2018-03-01T19:51:37.964Z,38.79
2018-03-01T19:54:04.244Z,38.72
2018-03-01T19:56:30.500Z,38.80
2018-03-01T19:58:56.796Z,38.81
2018-03-01T20:01:23.030Z,39.05
2018-03-01T20:03:49.559Z,39.06
2018-03-01T20:06:16.068Z,39.17
2018-03-01T20:08:42.723Z,39.33
2018-03-01T20:11:09.378Z,39.43
2018-03-01T20:13:47.747Z,39.42
2018-03-01T20:16:14.287Z,39.46
2018-03-01T20:18:40.610Z,39.48
2018-03-01T20:21:07.185Z,39.49
2018-03-01T20:23:33.688Z,39.56
2018-03-01T20:26:00.189Z,39.71
2018-03-01T20:28:26.776Z,39.75
2018-03-01T20:30:53.041Z,40.05
2018-03-01T20:33:19.594Z,40.10
2018-03-01T20:35:45.967Z,40.04
2018-03-01T20:38:12.203Z,40.12
2018-03-01T20:40:38.515Z,40.29
2018-03-01T20:43:04.971Z,40.39
2018-03-01T20:45:31.687Z,40.35
2018-03-01T20:47:58.280Z,40.39
2018-03-01T20:50:24.543Z,40.49
2018-03-01T20:52:50.800Z,40.64
2018-03-01T20:55:17.404Z,40.70
2018-03-01T20:57:44.138Z,40.80
2018-03-01T21:00:10.377Z,40.78
2018-03-01T21:02:36.950Z,40.99
2018-03-01T21:05:03.248Z,41.05
2018-03-01T21:07:29.719Z,40.90
2018-03-01T21:09:56.092Z,41.12
2018-03-01T21:12:22.394Z,41.03
2018-03-01T21:14:48.614Z,41.21
2018-03-01T21:17:14.972Z,41.14
2018-03-01T21:19:41.283Z,41.30
2018-03-01T21:22:07.581Z,41.19
2018-03-01T21:24:33.953Z,41.15
2018-03-01T21:27:00.185Z,41.28
2018-03-01T21:29:26.450Z,41.41
2018-03-01T21:31:52.672Z,41.27
2018-03-01T21:34:19.295Z,41.10
2018-03-01T21:36:45.573Z,41.37
2018-03-01T21:39:12.141Z,41.39
2018-03-01T21:41:38.451Z,41.35
2018-03-01T21:44:04.747Z,41.42
2018-03-01T21:46:31.169Z,41.35
2018-03-01T21:48:57.452Z,41.47
2018-03-01T21:51:23.992Z,41.45
2018-03-01T21:53:50.358Z,41.37
2018-03-01T21:56:16.763Z,41.36
2018-03-01T21:58:43.365Z,41.58
2018-03-01T22:01:11.102Z,41.77
2018-03-01T22:03:37.710Z,41.65
2018-03-01T22:06:04.322Z,41.93
2018-03-01T22:08:30.688Z,41.85
2018-03-01T22:10:57.972Z,41.69
2018-03-01T22:13:24.512Z,41.85
2018-03-01T22:15:50.978Z,41.85
2018-03-01T22:18:17.637Z,41.86
2018-03-01T22:20:44.374Z,41.81
2018-03-01T22:23:11.051Z,41.75
2018-03-01T22:25:37.612Z,41.81
2018-03-01T22:28:03.981Z,41.82
2018-03-01T22:30:30.300Z,41.76
2018-03-01T22:32:56.745Z,41.94
2018-03-01T22:35:23.180Z,42.02
2018-03-01T22:37:49.739Z,41.96
2018-03-01T22:40:16.396Z,41.84
2018-03-01T22:42:42.728Z,41.79
2018-03-01T22:45:09.385Z,41.71
2018-03-01T22:47:36.104Z,41.96
2018-03-01T22:50:02.915Z,41.97
2018-03-01T22:52:29.472Z,42.01
2018-03-01T22:54:56.067Z,42.29
2018-03-01T22:57:22.622Z,42.41
2018-03-01T22:59:49.888Z,42.17
2018-03-01T23:02:16.172Z,41.97
2018-03-01T23:04:42.708Z,42.15
2018-03-01T23:07:08.960Z,42.35
2018-03-01T23:09:35.502Z,42.13
2018-03-01T23:12:01.894Z,42.36
2018-03-01T23:14:28.277Z,42.56
2018-03-01T23:16:54.984Z,42.80
2018-03-01T23:19:21.499Z,42.50
2018-03-01T23:21:48.003Z,42.62
2018-03-01T23:24:14.412Z,42.59
2018-03-01T23:26:40.716Z,42.71
2018-03-01T23:29:06.973Z,42.96
2018-03-01T23:31:33.516Z,43.06
2018-03-01T23:34:00.172Z,43.08
2018-03-01T23:36:26.736Z,43.31
2018-03-01T23:38:53.199Z,43.48
2018-03-01T23:41:19.691Z,43.41
2018-03-01T23:43:46.090Z,43.60
2018-03-01T23:46:12.611Z,43.71
2018-03-01T23:48:38.994Z,44.11
2018-03-01T23:51:05.540Z,44.14
2018-03-01T23:53:31.936Z,44.08
2018-03-01T23:55:58.203Z,44.19
2018-03-01T23:58:24.731Z,43.97
